sensor_id;sensor_type;location;lat;lon;timestamp;pressure;altitude;pressure_sealevel;temperature;humidity
75759;BME280;64371;47.566;19.086;2023-02-28T00:01:24;101543.22;;;0.10;60.59
75759;BME280;64371;47.566;19.086;2023-02-28T00:04:31;101536.53;;;0.01;60.80
75759;BME280;64371;47.566;19.086;2023-02-28T00:07:37;101546.38;;;0.06;60.81
75759;BME280;64371;47.566;19.086;2023-02-28T00:10:51;101542.34;;;0.03;61.08
75759;BME280;64371;47.566;19.086;2023-02-28T00:13:59;101545.41;;;0.07;61.40
75759;BME280;64371;47.566;19.086;2023-02-28T00:17:04;101553.19;;;0.07;61.43
75759;BME280;64371;47.566;19.086;2023-02-28T00:20:18;101555.84;;;0.13;61.61
75759;BME280;64371;47.566;19.086;2023-02-28T00:23:20;101571.13;;;0.08;61.63
75759;BME280;64371;47.566;19.086;2023-02-28T00:26:24;101562.47;;;0.01;61.81
75759;BME280;64371;47.566;19.086;2023-02-28T00:29:34;101566.28;;;0.05;61.67
75759;BME280;64371;47.566;19.086;2023-02-28T00:33:01;101570.25;;;0.01;62.13
75759;BME280;64371;47.566;19.086;2023-02-28T00:36:14;101564.88;;;0.03;61.89
75759;BME280;64371;47.566;19.086;2023-02-28T00:39:16;101568.72;;;0.07;61.35
75759;BME280;64371;47.566;19.086;2023-02-28T00:42:23;101569.81;;;0.12;61.61
75759;BME280;64371;47.566;19.086;2023-02-28T00:45:35;101575.69;;;0.06;62.01
75759;BME280;64371;47.566;19.086;2023-02-28T00:48:38;101576.03;;;0.03;62.40
75759;BME280;64371;47.566;19.086;2023-02-28T00:51:52;101578.03;;;0.01;62.33
75759;BME280;64371;47.566;19.086;2023-02-28T00:55:06;101577.03;;;0.02;62.66
75759;BME280;64371;47.566;19.086;2023-02-28T00:58:16;101578.91;;;0.08;62.62
75759;BME280;64371;47.566;19.086;2023-02-28T01:01:21;101584.00;;;0.16;62.57
75759;BME280;64371;47.566;19.086;2023-02-28T01:04:34;101582.09;;;0.25;62.54
75759;BME280;64371;47.566;19.086;2023-02-28T01:07:37;101588.09;;;0.25;62.13
75759;BME280;64371;47.566;19.086;2023-02-28T01:10:56;101588.97;;;0.32;61.68
75759;BME280;64371;47.566;19.086;2023-02-28T01:14:06;101585.56;;;0.32;61.98
75759;BME280;64371;47.566;19.086;2023-02-28T01:17:09;101585.69;;;0.24;62.05
75759;BME280;64371;47.566;19.086;2023-02-28T01:20:16;101581.75;;;0.28;62.12
75759;BME280;64371;47.566;19.086;2023-02-28T01:23:22;101585.31;;;0.27;61.91
75759;BME280;64371;47.566;19.086;2023-02-28T01:26:37;101576.13;;;0.24;62.50
75759;BME280;64371;47.566;19.086;2023-02-28T01:29:44;101582.91;;;0.25;62.50
75759;BME280;64371;47.566;19.086;2023-02-28T01:32:59;101585.25;;;0.20;62.72
75759;BME280;64371;47.566;19.086;2023-02-28T01:36:07;101587.41;;;0.17;63.21
75759;BME280;64371;47.566;19.086;2023-02-28T01:39:13;101591.72;;;0.10;63.33
75759;BME280;64371;47.566;19.086;2023-02-28T01:42:21;101592.13;;;0.13;63.58
75759;BME280;64371;47.566;19.086;2023-02-28T01:45:29;101581.16;;;0.11;64.21
75759;BME280;64371;47.566;19.086;2023-02-28T01:48:48;101592.69;;;0.09;64.31
75759;BME280;64371;47.566;19.086;2023-02-28T01:51:57;101585.25;;;0.06;64.39
75759;BME280;64371;47.566;19.086;2023-02-28T01:55:04;101571.94;;;0.09;63.62
75759;BME280;64371;47.566;19.086;2023-02-28T01:58:18;101581.75;;;0.13;63.91
75759;BME280;64371;47.566;19.086;2023-02-28T02:01:34;101575.41;;;0.16;63.78
75759;BME280;64371;47.566;19.086;2023-02-28T02:05:07;101574.88;;;0.20;63.70
75759;BME280;64371;47.566;19.086;2023-02-28T02:08:14;101583.47;;;0.21;63.62
75759;BME280;64371;47.566;19.086;2023-02-28T02:11:30;101575.88;;;0.19;63.80
75759;BME280;64371;47.566;19.086;2023-02-28T02:17:53;101570.69;;;0.19;64.29
75759;BME280;64371;47.566;19.086;2023-02-28T02:35:12;101572.22;;;0.14;66.70
75759;BME280;64371;47.566;19.086;2023-02-28T02:41:58;101567.09;;;0.06;67.17
75759;BME280;64371;47.566;19.086;2023-02-28T02:45:17;101567.22;;;0.12;66.47
75759;BME280;64371;47.566;19.086;2023-02-28T02:48:29;101570.84;;;0.03;66.53
75759;BME280;64371;47.566;19.086;2023-02-28T02:51:40;101580.69;;;-0.07;67.38
75759;BME280;64371;47.566;19.086;2023-02-28T02:54:57;101577.66;;;0.04;66.00
75759;BME280;64371;47.566;19.086;2023-02-28T02:58:16;101584.91;;;0.09;66.23
75759;BME280;64371;47.566;19.086;2023-02-28T03:01:23;101571.75;;;0.10;66.11
75759;BME280;64371;47.566;19.086;2023-02-28T03:04:36;101579.25;;;0.05;65.64
75759;BME280;64371;47.566;19.086;2023-02-28T03:07:54;101568.81;;;0.13;64.72
75759;BME280;64371;47.566;19.086;2023-02-28T03:11:12;101575.97;;;0.11;64.79
75759;BME280;64371;47.566;19.086;2023-02-28T03:14:32;101577.81;;;0.17;64.88
75759;BME280;64371;47.566;19.086;2023-02-28T03:17:59;101584.06;;;0.23;64.60
75759;BME280;64371;47.566;19.086;2023-02-28T03:24:50;101589.25;;;0.37;64.09
75759;BME280;64371;47.566;19.086;2023-02-28T03:31:38;101586.38;;;0.32;64.35
75759;BME280;64371;47.566;19.086;2023-02-28T03:34:57;101587.91;;;0.27;64.21
75759;BME280;64371;47.566;19.086;2023-02-28T03:38:28;101580.59;;;0.30;64.21
75759;BME280;64371;47.566;19.086;2023-02-28T03:45:01;101583.72;;;0.26;64.02
75759;BME280;64371;47.566;19.086;2023-02-28T03:48:16;101583.53;;;0.27;63.33
75759;BME280;64371;47.566;19.086;2023-02-28T03:51:31;101580.66;;;0.22;63.27
75759;BME280;64371;47.566;19.086;2023-02-28T03:54:52;101588.28;;;0.24;63.02
75759;BME280;64371;47.566;19.086;2023-02-28T03:58:20;101585.69;;;0.38;62.60
75759;BME280;64371;47.566;19.086;2023-02-28T04:01:40;101588.53;;;0.43;62.11
75759;BME280;64371;47.566;19.086;2023-02-28T04:04:48;101580.88;;;0.56;61.40
75759;BME280;64371;47.566;19.086;2023-02-28T04:08:04;101581.75;;;0.63;60.33
75759;BME280;64371;47.566;19.086;2023-02-28T04:14:25;101576.84;;;0.54;60.01
75759;BME280;64371;47.566;19.086;2023-02-28T04:17:33;101578.13;;;0.58;59.89
75759;BME280;64371;47.566;19.086;2023-02-28T04:20:37;101569.34;;;0.59;59.21
75759;BME280;64371;47.566;19.086;2023-02-28T04:23:42;101578.75;;;0.60;59.71
75759;BME280;64371;47.566;19.086;2023-02-28T04:26:50;101569.41;;;0.65;59.14
75759;BME280;64371;47.566;19.086;2023-02-28T04:30:02;101567.69;;;0.73;59.32
75759;BME280;64371;47.566;19.086;2023-02-28T04:33:08;101570.09;;;0.74;59.27
75759;BME280;64371;47.566;19.086;2023-02-28T04:36:23;101567.31;;;0.76;59.09
75759;BME280;64371;47.566;19.086;2023-02-28T04:39:35;101566.53;;;0.75;58.77
75759;BME280;64371;47.566;19.086;2023-02-28T04:42:44;101567.06;;;0.71;59.15
75759;BME280;64371;47.566;19.086;2023-02-28T04:46:03;101565.81;;;0.66;59.30
75759;BME280;64371;47.566;19.086;2023-02-28T04:49:05;101567.50;;;0.53;59.89
75759;BME280;64371;47.566;19.086;2023-02-28T04:52:08;101558.34;;;0.57;59.11
75759;BME280;64371;47.566;19.086;2023-02-28T04:55:13;101561.22;;;0.47;59.09
75759;BME280;64371;47.566;19.086;2023-02-28T04:58:27;101559.88;;;0.51;58.47
75759;BME280;64371;47.566;19.086;2023-02-28T05:01:35;101558.69;;;0.54;58.29
75759;BME280;64371;47.566;19.086;2023-02-28T05:04:43;101566.63;;;0.46;58.65
75759;BME280;64371;47.566;19.086;2023-02-28T05:07:48;101567.91;;;0.56;58.53
75759;BME280;64371;47.566;19.086;2023-02-28T05:10:56;101562.09;;;0.54;58.53
75759;BME280;64371;47.566;19.086;2023-02-28T05:14:09;101568.53;;;0.58;58.06
75759;BME280;64371;47.566;19.086;2023-02-28T05:17:18;101570.03;;;0.68;58.13
75759;BME280;64371;47.566;19.086;2023-02-28T05:20:32;101568.97;;;0.62;57.85
75759;BME280;64371;47.566;19.086;2023-02-28T05:23:41;101578.91;;;0.58;57.67
75759;BME280;64371;47.566;19.086;2023-02-28T05:26:51;101590.75;;;0.46;57.94
75759;BME280;64371;47.566;19.086;2023-02-28T05:30:02;101580.72;;;0.58;57.91
75759;BME280;64371;47.566;19.086;2023-02-28T05:33:10;101579.31;;;0.77;57.49
75759;BME280;64371;47.566;19.086;2023-02-28T05:36:17;101579.31;;;0.77;57.39
75759;BME280;64371;47.566;19.086;2023-02-28T05:39:30;101587.34;;;0.82;56.77
75759;BME280;64371;47.566;19.086;2023-02-28T05:42:54;101589.25;;;0.73;57.02
75759;BME280;64371;47.566;19.086;2023-02-28T05:45:57;101591.53;;;0.83;56.71
75759;BME280;64371;47.566;19.086;2023-02-28T05:49:08;101594.81;;;0.70;56.18
75759;BME280;64371;47.566;19.086;2023-02-28T05:52:28;101589.44;;;0.72;55.83
75759;BME280;64371;47.566;19.086;2023-02-28T05:55:46;101593.09;;;0.77;55.66
75759;BME280;64371;47.566;19.086;2023-02-28T05:58:52;101597.38;;;0.85;55.58
75759;BME280;64371;47.566;19.086;2023-02-28T06:02:01;101599.72;;;0.80;55.51
75759;BME280;64371;47.566;19.086;2023-02-28T06:05:22;101607.31;;;0.81;55.35
75759;BME280;64371;47.566;19.086;2023-02-28T06:08:28;101606.81;;;0.92;55.66
75759;BME280;64371;47.566;19.086;2023-02-28T06:11:32;101611.53;;;1.03;54.72
75759;BME280;64371;47.566;19.086;2023-02-28T06:14:41;101604.72;;;1.02;54.75
75759;BME280;64371;47.566;19.086;2023-02-28T06:17:44;101610.59;;;1.11;54.52
75759;BME280;64371;47.566;19.086;2023-02-28T06:20:54;101609.78;;;1.10;54.66
75759;BME280;64371;47.566;19.086;2023-02-28T06:24:03;101621.28;;;1.22;54.40
75759;BME280;64371;47.566;19.086;2023-02-28T06:27:10;101623.13;;;1.28;54.58
75759;BME280;64371;47.566;19.086;2023-02-28T06:30:19;101615.44;;;1.42;54.05
75759;BME280;64371;47.566;19.086;2023-02-28T06:33:30;101611.16;;;1.55;53.99
75759;BME280;64371;47.566;19.086;2023-02-28T06:36:42;101628.00;;;1.59;53.86
75759;BME280;64371;47.566;19.086;2023-02-28T06:39:51;101619.47;;;1.44;53.85
75759;BME280;64371;47.566;19.086;2023-02-28T06:42:56;101620.84;;;1.68;52.99
75759;BME280;64371;47.566;19.086;2023-02-28T06:46:00;101615.78;;;1.87;52.80
75759;BME280;64371;47.566;19.086;2023-02-28T06:49:14;101623.00;;;1.92;52.63
75759;BME280;64371;47.566;19.086;2023-02-28T06:52:23;101617.56;;;1.87;51.98
75759;BME280;64371;47.566;19.086;2023-02-28T06:55:32;101632.38;;;1.86;52.22
75759;BME280;64371;47.566;19.086;2023-02-28T06:58:38;101622.94;;;1.79;52.83
75759;BME280;64371;47.566;19.086;2023-02-28T07:01:56;101620.22;;;1.93;52.34
75759;BME280;64371;47.566;19.086;2023-02-28T07:05:08;101626.91;;;2.09;51.17
75759;BME280;64371;47.566;19.086;2023-02-28T07:08:14;101630.28;;;2.37;51.32
75759;BME280;64371;47.566;19.086;2023-02-28T07:11:22;101637.28;;;2.37;50.29
75759;BME280;64371;47.566;19.086;2023-02-28T07:14:28;101640.03;;;2.35;49.26
75759;BME280;64371;47.566;19.086;2023-02-28T07:17:39;101644.97;;;2.58;49.51
75759;BME280;64371;47.566;19.086;2023-02-28T07:20:44;101650.31;;;3.10;48.01
75759;BME280;64371;47.566;19.086;2023-02-28T07:24:17;101651.56;;;3.41;46.95
75759;BME280;64371;47.566;19.086;2023-02-28T07:27:34;101649.75;;;3.34;46.56
75759;BME280;64371;47.566;19.086;2023-02-28T07:30:44;101658.16;;;3.56;46.80
75759;BME280;64371;47.566;19.086;2023-02-28T07:33:47;101658.16;;;3.56;46.24
75759;BME280;64371;47.566;19.086;2023-02-28T07:37:01;101653.72;;;3.17;47.37
75759;BME280;64371;47.566;19.086;2023-02-28T07:40:11;101656.97;;;3.46;47.53
75759;BME280;64371;47.566;19.086;2023-02-28T07:43:13;101654.34;;;3.59;46.53
75759;BME280;64371;47.566;19.086;2023-02-28T07:46:18;101659.16;;;3.68;45.67
75759;BME280;64371;47.566;19.086;2023-02-28T07:49:36;101657.75;;;3.66;46.23
75759;BME280;64371;47.566;19.086;2023-02-28T07:52:45;101662.59;;;3.69;45.77
75759;BME280;64371;47.566;19.086;2023-02-28T07:55:50;101652.13;;;3.95;45.87
75759;BME280;64371;47.566;19.086;2023-02-28T07:59:00;101656.94;;;3.98;45.21
75759;BME280;64371;47.566;19.086;2023-02-28T08:02:03;101659.13;;;4.08;44.97
75759;BME280;64371;47.566;19.086;2023-02-28T08:05:28;101650.94;;;3.91;45.12
75759;BME280;64371;47.566;19.086;2023-02-28T08:08:37;101663.00;;;3.59;45.71
75759;BME280;64371;47.566;19.086;2023-02-28T08:11:41;101653.38;;;3.73;45.86
75759;BME280;64371;47.566;19.086;2023-02-28T08:14:52;101657.56;;;3.93;44.85
75759;BME280;64371;47.566;19.086;2023-02-28T08:18:01;101651.31;;;4.08;44.44
75759;BME280;64371;47.566;19.086;2023-02-28T08:21:10;101654.59;;;4.54;43.90
75759;BME280;64371;47.566;19.086;2023-02-28T08:24:40;101654.13;;;4.63;43.14
75759;BME280;64371;47.566;19.086;2023-02-28T08:27:46;101661.78;;;4.58;43.03
75759;BME280;64371;47.566;19.086;2023-02-28T08:30:54;101653.56;;;4.61;43.32
75759;BME280;64371;47.566;19.086;2023-02-28T08:34:02;101656.03;;;4.88;42.59
75759;BME280;64371;47.566;19.086;2023-02-28T08:37:07;101649.72;;;5.33;41.45
75759;BME280;64371;47.566;19.086;2023-02-28T08:40:10;101645.50;;;5.32;41.22
75759;BME280;64371;47.566;19.086;2023-02-28T08:43:24;101645.19;;;5.96;40.38
75759;BME280;64371;47.566;19.086;2023-02-28T08:46:30;101639.91;;;5.53;40.51
75759;BME280;64371;47.566;19.086;2023-02-28T08:49:33;101651.38;;;5.27;41.50
75759;BME280;64371;47.566;19.086;2023-02-28T08:52:43;101658.91;;;5.67;40.23
75759;BME280;64371;47.566;19.086;2023-02-28T08:56:15;101658.13;;;5.66;40.05
75759;BME280;64371;47.566;19.086;2023-02-28T08:59:28;101656.28;;;6.34;38.53
75759;BME280;64371;47.566;19.086;2023-02-28T09:02:35;101655.38;;;6.88;37.36
75759;BME280;64371;47.566;19.086;2023-02-28T09:06:01;101656.63;;;6.86;37.34
75759;BME280;64371;47.566;19.086;2023-02-28T09:09:15;101650.75;;;6.90;37.08
75759;BME280;64371;47.566;19.086;2023-02-28T09:12:34;101644.09;;;5.79;40.21
75759;BME280;64371;47.566;19.086;2023-02-28T09:15:39;101651.84;;;5.18;41.80
75759;BME280;64371;47.566;19.086;2023-02-28T09:18:46;101646.72;;;6.03;39.77
75759;BME280;64371;47.566;19.086;2023-02-28T09:21:59;101660.84;;;5.78;40.25
75759;BME280;64371;47.566;19.086;2023-02-28T09:25:09;101640.09;;;6.01;40.57
75759;BME280;64371;47.566;19.086;2023-02-28T09:28:15;101654.09;;;5.39;41.43
75759;BME280;64371;47.566;19.086;2023-02-28T09:31:25;101651.34;;;5.59;41.37
75759;BME280;64371;47.566;19.086;2023-02-28T09:34:52;101651.06;;;5.67;40.92
75759;BME280;64371;47.566;19.086;2023-02-28T09:38:03;101659.41;;;5.26;41.28
75759;BME280;64371;47.566;19.086;2023-02-28T09:41:24;101660.63;;;5.23;41.58
75759;BME280;64371;47.566;19.086;2023-02-28T09:54:40;101648.13;;;5.57;41.50
75759;BME280;64371;47.566;19.086;2023-02-28T09:57:52;101641.03;;;5.39;41.83
75759;BME280;64371;47.566;19.086;2023-02-28T10:05:07;101642.84;;;5.88;41.00
75759;BME280;64371;47.566;19.086;2023-02-28T10:08:22;101641.22;;;6.12;40.32
75759;BME280;64371;47.566;19.086;2023-02-28T10:11:32;101648.25;;;6.11;40.67
75759;BME280;64371;47.566;19.086;2023-02-28T10:14:54;101638.28;;;5.77;41.76
75759;BME280;64371;47.566;19.086;2023-02-28T10:18:16;101636.97;;;5.68;41.71
75759;BME280;64371;47.566;19.086;2023-02-28T10:21:34;101638.06;;;5.85;40.75
75759;BME280;64371;47.566;19.086;2023-02-28T10:24:42;101643.66;;;6.43;40.04
75759;BME280;64371;47.566;19.086;2023-02-28T10:27:50;101636.09;;;6.35;39.84
75759;BME280;64371;47.566;19.086;2023-02-28T10:31:18;101630.28;;;6.33;40.34
75759;BME280;64371;47.566;19.086;2023-02-28T10:34:27;101629.91;;;6.65;40.74
75759;BME280;64371;47.566;19.086;2023-02-28T10:37:42;101624.91;;;6.28;41.75
75759;BME280;64371;47.566;19.086;2023-02-28T10:40:57;101627.16;;;6.90;41.12
75759;BME280;64371;47.566;19.086;2023-02-28T10:44:22;101616.13;;;6.22;41.37
75759;BME280;64371;47.566;19.086;2023-02-28T10:47:34;101611.31;;;6.67;39.91
75759;BME280;64371;47.566;19.086;2023-02-28T10:50:51;101607.28;;;6.83;39.31
75759;BME280;64371;47.566;19.086;2023-02-28T10:54:05;101604.88;;;7.22;40.59
75759;BME280;64371;47.566;19.086;2023-02-28T10:57:23;101595.66;;;7.66;39.73
75759;BME280;64371;47.566;19.086;2023-02-28T11:00:35;101599.41;;;7.93;39.57
75759;BME280;64371;47.566;19.086;2023-02-28T11:03:40;101600.03;;;6.96;41.73
75759;BME280;64371;47.566;19.086;2023-02-28T11:06:45;101600.75;;;6.74;42.59
75759;BME280;64371;47.566;19.086;2023-02-28T11:09:54;101601.19;;;6.41;42.68
75759;BME280;64371;47.566;19.086;2023-02-28T11:13:19;101611.84;;;6.57;42.09
75759;BME280;64371;47.566;19.086;2023-02-28T11:16:38;101607.91;;;6.66;41.93
75759;BME280;64371;47.566;19.086;2023-02-28T11:19:48;101600.81;;;6.55;42.83
75759;BME280;64371;47.566;19.086;2023-02-28T11:22:57;101598.22;;;6.67;42.21
75759;BME280;64371;47.566;19.086;2023-02-28T11:26:10;101594.75;;;6.85;40.85
75759;BME280;64371;47.566;19.086;2023-02-28T11:29:29;101591.72;;;6.99;42.09
75759;BME280;64371;47.566;19.086;2023-02-28T11:32:39;101588.50;;;6.56;41.80
75759;BME280;64371;47.566;19.086;2023-02-28T11:36:01;101587.56;;;6.50;41.36
75759;BME280;64371;47.566;19.086;2023-02-28T11:39:20;101579.19;;;6.42;42.55
75759;BME280;64371;47.566;19.086;2023-02-28T11:42:40;101587.66;;;6.44;42.53
75759;BME280;64371;47.566;19.086;2023-02-28T11:46:20;101572.69;;;6.92;41.39
75759;BME280;64371;47.566;19.086;2023-02-28T11:57:38;101574.53;;;6.74;42.06
75759;BME280;64371;47.566;19.086;2023-02-28T12:28:23;101549.31;;;7.83;41.96
75759;BME280;64371;47.566;19.086;2023-02-28T12:31:40;101534.13;;;8.25;41.78
75759;BME280;64371;47.566;19.086;2023-02-28T12:38:27;101526.97;;;8.21;39.64
75759;BME280;64371;47.566;19.086;2023-02-28T12:41:53;101532.34;;;7.28;43.67
75759;BME280;64371;47.566;19.086;2023-02-28T12:45:05;101525.63;;;7.32;43.00
75759;BME280;64371;47.566;19.086;2023-02-28T12:48:15;101529.00;;;8.58;40.33
75759;BME280;64371;47.566;19.086;2023-02-28T12:51:31;101524.72;;;9.02;39.91
75759;BME280;64371;47.566;19.086;2023-02-28T12:54:56;101527.25;;;8.36;41.25
75759;BME280;64371;47.566;19.086;2023-02-28T12:58:26;101512.28;;;8.08;42.00
75759;BME280;64371;47.566;19.086;2023-02-28T13:02:02;101519.03;;;7.41;43.02
75759;BME280;64371;47.566;19.086;2023-02-28T13:12:21;101508.84;;;7.45;43.28
75759;BME280;64371;47.566;19.086;2023-02-28T13:15:39;101510.66;;;7.56;42.55
75759;BME280;64371;47.566;19.086;2023-02-28T13:19:08;101503.97;;;7.13;43.52
75759;BME280;64371;47.566;19.086;2023-02-28T13:22:19;101505.44;;;7.32;43.21
75759;BME280;64371;47.566;19.086;2023-02-28T13:35:35;101503.31;;;6.65;44.58
75759;BME280;64371;47.566;19.086;2023-02-28T13:46:10;101496.66;;;7.27;43.82
75759;BME280;64371;47.566;19.086;2023-02-28T13:52:24;101483.34;;;7.17;44.28
75759;BME280;64371;47.566;19.086;2023-02-28T13:59:36;101476.00;;;7.07;44.08
75759;BME280;64371;47.566;19.086;2023-02-28T14:06:15;101476.47;;;7.39;43.43
75759;BME280;64371;47.566;19.086;2023-02-28T14:09:25;101474.03;;;7.72;41.68
75759;BME280;64371;47.566;19.086;2023-02-28T14:16:22;101459.94;;;7.50;42.47
75759;BME280;64371;47.566;19.086;2023-02-28T14:19:41;101461.53;;;7.40;42.43
75759;BME280;64371;47.566;19.086;2023-02-28T14:36:16;101462.00;;;6.37;45.92
75759;BME280;64371;47.566;19.086;2023-02-28T14:39:22;101458.94;;;6.29;46.38
75759;BME280;64371;47.566;19.086;2023-02-28T14:42:37;101460.75;;;6.28;46.38
75759;BME280;64371;47.566;19.086;2023-02-28T14:46:04;101461.56;;;6.40;45.85
75759;BME280;64371;47.566;19.086;2023-02-28T14:49:19;101460.72;;;6.58;45.73
75759;BME280;64371;47.566;19.086;2023-02-28T14:52:30;101460.69;;;6.46;46.34
75759;BME280;64371;47.566;19.086;2023-02-28T14:55:36;101456.34;;;6.52;46.41
75759;BME280;64371;47.566;19.086;2023-02-28T14:58:51;101455.16;;;6.66;45.76
75759;BME280;64371;47.566;19.086;2023-02-28T15:02:36;101466.28;;;6.61;45.86
75759;BME280;64371;47.566;19.086;2023-02-28T15:05:39;101467.44;;;6.65;46.02
75759;BME280;64371;47.566;19.086;2023-02-28T15:09:19;101459.19;;;6.39;46.97
75759;BME280;64371;47.566;19.086;2023-02-28T15:12:24;101465.03;;;6.52;46.15
75759;BME280;64371;47.566;19.086;2023-02-28T15:19:07;101468.97;;;6.32;47.55
75759;BME280;64371;47.566;19.086;2023-02-28T15:22:31;101472.91;;;6.23;47.70
75759;BME280;64371;47.566;19.086;2023-02-28T15:25:39;101471.88;;;6.24;47.71
75759;BME280;64371;47.566;19.086;2023-02-28T15:28:57;101474.06;;;6.27;47.35
75759;BME280;64371;47.566;19.086;2023-02-28T15:32:06;101465.88;;;6.35;47.29
75759;BME280;64371;47.566;19.086;2023-02-28T15:38:38;101461.88;;;6.32;47.91
75759;BME280;64371;47.566;19.086;2023-02-28T15:41:46;101458.94;;;6.29;47.29
75759;BME280;64371;47.566;19.086;2023-02-28T15:45:05;101460.94;;;6.15;47.14
75759;BME280;64371;47.566;19.086;2023-02-28T15:48:22;101452.72;;;6.12;49.45
75759;BME280;64371;47.566;19.086;2023-02-28T15:51:36;101453.25;;;6.02;49.11
75759;BME280;64371;47.566;19.086;2023-02-28T15:54:46;101456.47;;;5.68;50.79
75759;BME280;64371;47.566;19.086;2023-02-28T15:57:55;101457.22;;;5.57;50.94
75759;BME280;64371;47.566;19.086;2023-02-28T16:01:17;101455.88;;;5.66;51.07
75759;BME280;64371;47.566;19.086;2023-02-28T16:04:20;101461.41;;;5.58;50.94
75759;BME280;64371;47.566;19.086;2023-02-28T16:07:38;101469.34;;;5.51;51.48
75759;BME280;64371;47.566;19.086;2023-02-28T16:10:47;101464.53;;;5.48;50.73
75759;BME280;64371;47.566;19.086;2023-02-28T16:13:55;101462.50;;;5.50;51.38
75759;BME280;64371;47.566;19.086;2023-02-28T16:17:27;101459.31;;;5.48;51.95
75759;BME280;64371;47.566;19.086;2023-02-28T16:20:32;101469.09;;;5.53;51.26
75759;BME280;64371;47.566;19.086;2023-02-28T16:23:38;101476.44;;;5.44;51.93
75759;BME280;64371;47.566;19.086;2023-02-28T16:26:48;101466.13;;;5.49;51.63
75759;BME280;64371;47.566;19.086;2023-02-28T16:30:00;101474.69;;;5.38;52.03
75759;BME280;64371;47.566;19.086;2023-02-28T16:33:07;101470.13;;;5.33;52.68
75759;BME280;64371;47.566;19.086;2023-02-28T16:36:20;101473.75;;;5.51;52.05
75759;BME280;64371;47.566;19.086;2023-02-28T16:39:34;101462.81;;;5.42;51.99
75759;BME280;64371;47.566;19.086;2023-02-28T16:42:38;101485.06;;;5.26;52.36
75759;BME280;64371;47.566;19.086;2023-02-28T16:45:55;101476.44;;;5.44;52.32
75759;BME280;64371;47.566;19.086;2023-02-28T16:49:02;101485.00;;;5.33;52.90
75759;BME280;64371;47.566;19.086;2023-02-28T16:52:07;101485.56;;;5.17;53.77
75759;BME280;64371;47.566;19.086;2023-02-28T16:55:16;101491.44;;;5.12;53.70
75759;BME280;64371;47.566;19.086;2023-02-28T16:58:19;101489.47;;;5.08;53.57
75759;BME280;64371;47.566;19.086;2023-02-28T17:01:31;101493.66;;;5.09;54.19
75759;BME280;64371;47.566;19.086;2023-02-28T17:04:38;101502.28;;;5.16;53.77
75759;BME280;64371;47.566;19.086;2023-02-28T17:07:41;101493.09;;;5.07;54.30
75759;BME280;64371;47.566;19.086;2023-02-28T17:10:52;101503.63;;;5.18;54.06
75759;BME280;64371;47.566;19.086;2023-02-28T17:13:57;101509.50;;;5.14;54.68
75759;BME280;64371;47.566;19.086;2023-02-28T17:17:06;101504.56;;;5.06;54.71
75759;BME280;64371;47.566;19.086;2023-02-28T17:20:20;101498.53;;;5.05;55.07
75759;BME280;64371;47.566;19.086;2023-02-28T17:23:33;101502.28;;;5.16;54.59
75759;BME280;64371;47.566;19.086;2023-02-28T17:26:53;101507.44;;;5.22;54.40
75759;BME280;64371;47.566;19.086;2023-02-28T17:29:59;101505.47;;;5.18;55.05
75759;BME280;64371;47.566;19.086;2023-02-28T17:33:04;101501.19;;;5.23;55.32
75759;BME280;64371;47.566;19.086;2023-02-28T17:36:23;101506.31;;;5.12;55.43
75759;BME280;64371;47.566;19.086;2023-02-28T17:39:31;101507.28;;;4.93;56.35
75759;BME280;64371;47.566;19.086;2023-02-28T17:42:38;101511.97;;;5.09;56.16
75759;BME280;64371;47.566;19.086;2023-02-28T17:45:46;101503.13;;;5.10;55.92
75759;BME280;64371;47.566;19.086;2023-02-28T17:49:08;101507.19;;;5.06;56.01
75759;BME280;64371;47.566;19.086;2023-02-28T17:52:13;101504.50;;;5.12;56.17
75759;BME280;64371;47.566;19.086;2023-02-28T17:55:16;101505.63;;;4.98;56.45
75759;BME280;64371;47.566;19.086;2023-02-28T17:58:20;101506.53;;;4.86;57.26
75759;BME280;64371;47.566;19.086;2023-02-28T18:01:24;101513.66;;;4.97;57.04
75759;BME280;64371;47.566;19.086;2023-02-28T18:04:32;101523.81;;;4.87;57.10
75759;BME280;64371;47.566;19.086;2023-02-28T18:07:37;101519.34;;;4.94;57.11
75759;BME280;64371;47.566;19.086;2023-02-28T18:14:11;101522.25;;;5.04;56.52
75759;BME280;64371;47.566;19.086;2023-02-28T18:17:24;101525.25;;;5.07;56.60
75759;BME280;64371;47.566;19.086;2023-02-28T18:20:26;101528.97;;;4.93;56.63
75759;BME280;64371;47.566;19.086;2023-02-28T18:23:31;101532.19;;;4.95;57.08
75759;BME280;64371;47.566;19.086;2023-02-28T18:26:35;101530.44;;;4.89;56.79
75759;BME280;64371;47.566;19.086;2023-02-28T18:29:43;101527.19;;;4.94;57.00
75759;BME280;64371;47.566;19.086;2023-02-28T18:32:51;101530.38;;;4.96;57.16
75759;BME280;64371;47.566;19.086;2023-02-28T18:36:12;101526.53;;;4.98;56.76
75759;BME280;64371;47.566;19.086;2023-02-28T18:39:29;101525.81;;;5.16;56.82
75759;BME280;64371;47.566;19.086;2023-02-28T18:42:31;101519.81;;;5.09;56.66
75759;BME280;64371;47.566;19.086;2023-02-28T18:45:35;101523.03;;;5.11;56.14
75759;BME280;64371;47.566;19.086;2023-02-28T18:48:48;101526.91;;;5.02;56.05
75759;BME280;64371;47.566;19.086;2023-02-28T18:52:08;101528.72;;;5.01;56.42
75759;BME280;64371;47.566;19.086;2023-02-28T18:55:20;101525.91;;;5.03;55.97
75759;BME280;64371;47.566;19.086;2023-02-28T18:58:45;101521.19;;;5.11;56.07
75759;BME280;64371;47.566;19.086;2023-02-28T19:01:57;101527.03;;;5.13;56.33
75759;BME280;64371;47.566;19.086;2023-02-28T19:05:03;101520.50;;;4.98;56.25
75759;BME280;64371;47.566;19.086;2023-02-28T19:08:09;101516.59;;;5.07;55.90
75759;BME280;64371;47.566;19.086;2023-02-28T19:11:17;101523.22;;;5.09;55.68
75759;BME280;64371;47.566;19.086;2023-02-28T19:14:36;101524.44;;;4.82;56.26